sensor_id;sensor_type;location;lat;lon;timestamp;P1;P2;P0
66336;PMS1003;53139;45.576;5.304;2022-07-29T04:50:10;4.75;4.75;3.75
66336;PMS1003;53139;45.576;5.304;2022-07-29T04:53:11;5.75;5.00;4.50
66336;PMS1003;53139;45.576;5.304;2022-07-29T04:56:12;4.00;4.00;4.00
66336;PMS1003;53139;45.576;5.304;2022-07-29T04:59:12;7.50;5.25;3.50
66336;PMS1003;53139;45.576;5.304;2022-07-29T05:02:12;7.00;4.00;3.50
66336;PMS1003;53139;45.576;5.304;2022-07-29T05:05:13;4.75;4.75;3.75
66336;PMS1003;53139;45.576;5.304;2022-07-29T05:08:13;6.25;5.50;3.75
66336;PMS1003;53139;45.576;5.304;2022-07-29T05:11:14;4.50;4.50;4.00
66336;PMS1003;53139;45.576;5.304;2022-07-29T05:14:14;6.50;4.25;3.25
66336;PMS1003;53139;45.576;5.304;2022-07-29T05:17:15;8.25;6.25;4.25
66336;PMS1003;53139;45.576;5.304;2022-07-29T05:20:15;6.00;4.75;3.75
66336;PMS1003;53139;45.576;5.304;2022-07-29T05:23:18;8.00;8.00;5.25
66336;PMS1003;53139;45.576;5.304;2022-07-29T05:26:18;13.25;8.75;5.00
66336;PMS1003;53139;45.576;5.304;2022-07-29T05:29:19;7.50;4.25;4.00
66336;PMS1003;53139;45.576;5.304;2022-07-29T05:32:19;7.75;5.25;4.00
66336;PMS1003;53139;45.576;5.304;2022-07-29T05:35:20;4.50;4.50;4.00
66336;PMS1003;53139;45.576;5.304;2022-07-29T05:38:20;7.50;5.25;5.00
66336;PMS1003;53139;45.576;5.304;2022-07-29T05:41:21;10.50;6.00;4.50
66336;PMS1003;53139;45.576;5.304;2022-07-29T05:44:21;5.00;4.00;4.00
66336;PMS1003;53139;45.576;5.304;2022-07-29T05:47:22;5.00;5.00;4.00
66336;PMS1003;53139;45.576;5.304;2022-07-29T05:50:23;4.25;4.25;4.00
66336;PMS1003;53139;45.576;5.304;2022-07-29T05:53:24;6.50;5.75;5.00
66336;PMS1003;53139;45.576;5.304;2022-07-29T05:56:24;8.50;6.75;5.25
66336;PMS1003;53139;45.576;5.304;2022-07-29T05:59:25;7.25;5.75;5.00
66336;PMS1003;53139;45.576;5.304;2022-07-29T06:02:26;5.25;4.50;4.25
66336;PMS1003;53139;45.576;5.304;2022-07-29T06:05:26;7.25;5.00;4.00
66336;PMS1003;53139;45.576;5.304;2022-07-29T06:08:26;6.00;5.00;5.00
66336;PMS1003;53139;45.576;5.304;2022-07-29T06:11:27;5.75;5.75;4.50
66336;PMS1003;53139;45.576;5.304;2022-07-29T06:14:27;6.75;5.00;4.00
66336;PMS1003;53139;45.576;5.304;2022-07-29T06:17:28;9.25;6.25;4.75
66336;PMS1003;53139;45.576;5.304;2022-07-29T06:20:29;7.25;5.00;5.00
66336;PMS1003;53139;45.576;5.304;2022-07-29T06:23:30;6.50;6.50;4.00
66336;PMS1003;53139;45.576;5.304;2022-07-29T06:26:30;6.00;6.00;4.50
66336;PMS1003;53139;45.576;5.304;2022-07-29T06:29:30;6.50;6.00;4.75
66336;PMS1003;53139;45.576;5.304;2022-07-29T06:32:31;8.25;6.00;5.00
66336;PMS1003;53139;45.576;5.304;2022-07-29T06:35:34;6.00;5.00;4.00
66336;PMS1003;53139;45.576;5.304;2022-07-29T06:38:35;10.25;10.25;7.25
66336;PMS1003;53139;45.576;5.304;2022-07-29T06:41:38;10.75;9.75;7.75
66336;PMS1003;53139;45.576;5.304;2022-07-29T06:44:38;5.00;5.00;5.00
66336;PMS1003;53139;45.576;5.304;2022-07-29T06:47:38;9.25;7.25;6.00
66336;PMS1003;53139;45.576;5.304;2022-07-29T06:50:39;7.75;7.75;5.50
66336;PMS1003;53139;45.576;5.304;2022-07-29T06:53:39;9.25;7.75;6.00
66336;PMS1003;53139;45.576;5.304;2022-07-29T06:56:40;6.00;6.00;5.00
66336;PMS1003;53139;45.576;5.304;2022-07-29T06:59:41;8.25;8.00;6.00
66336;PMS1003;53139;45.576;5.304;2022-07-29T07:02:42;8.00;7.25;4.75
66336;PMS1003;53139;45.576;5.304;2022-07-29T07:05:42;8.50;7.25;5.75
66336;PMS1003;53139;45.576;5.304;2022-07-29T07:08:43;9.50;5.75;5.00
66336;PMS1003;53139;45.576;5.304;2022-07-29T07:11:43;10.75;9.00;6.00
66336;PMS1003;53139;45.576;5.304;2022-07-29T07:14:43;9.00;8.50;5.75
66336;PMS1003;53139;45.576;5.304;2022-07-29T07:17:44;11.00;10.75;8.50
66336;PMS1003;53139;45.576;5.304;2022-07-29T07:20:44;11.50;8.50;5.75
66336;PMS1003;53139;45.576;5.304;2022-07-29T07:23:45;9.75;9.75;8.25
66336;PMS1003;53139;45.576;5.304;2022-07-29T07:26:46;10.50;10.00;7.25
66336;PMS1003;53139;45.576;5.304;2022-07-29T07:29:47;9.25;9.00;7.25
66336;PMS1003;53139;45.576;5.304;2022-07-29T07:32:47;8.25;7.25;6.50
66336;PMS1003;53139;45.576;5.304;2022-07-29T07:35:47;9.00;9.00;7.25
66336;PMS1003;53139;45.576;5.304;2022-07-29T07:38:48;11.00;10.75;8.50
66336;PMS1003;53139;45.576;5.304;2022-07-29T07:41:48;10.50;10.50;9.00
66336;PMS1003;53139;45.576;5.304;2022-07-29T07:44:49;12.75;12.50;8.50
66336;PMS1003;53139;45.576;5.304;2022-07-29T07:47:49;11.25;10.50;9.00
66336;PMS1003;53139;45.576;5.304;2022-07-29T07:50:50;12.00;11.00;8.50
66336;PMS1003;53139;45.576;5.304;2022-07-29T07:53:51;10.75;9.00;7.25
66336;PMS1003;53139;45.576;5.304;2022-07-29T07:56:51;8.75;8.75;6.25
66336;PMS1003;53139;45.576;5.304;2022-07-29T07:59:52;11.75;11.75;10.00
66336;PMS1003;53139;45.576;5.304;2022-07-29T08:02:52;11.00;9.75;7.00
66336;PMS1003;53139;45.576;5.304;2022-07-29T08:05:52;10.50;10.50;7.25
66336;PMS1003;53139;45.576;5.304;2022-07-29T08:08:54;9.50;8.25;7.00
66336;PMS1003;53139;45.576;5.304;2022-07-29T08:11:54;12.50;12.25;10.00
66336;PMS1003;53139;45.576;5.304;2022-07-29T08:14:56;11.25;10.75;8.25
66336;PMS1003;53139;45.576;5.304;2022-07-29T08:17:56;6.50;6.50;4.75
66336;PMS1003;53139;45.576;5.304;2022-07-29T08:20:57;9.75;9.75;8.00
66336;PMS1003;53139;45.576;5.304;2022-07-29T08:23:57;12.00;11.25;9.25
66336;PMS1003;53139;45.576;5.304;2022-07-29T08:27:17;12.00;11.25;8.75
66336;PMS1003;53139;45.576;5.304;2022-07-29T08:30:17;11.75;11.75;9.25
66336;PMS1003;53139;45.576;5.304;2022-07-29T08:33:18;12.75;10.00;8.50
66336;PMS1003;53139;45.576;5.304;2022-07-29T08:36:18;15.75;13.00;9.25
66336;PMS1003;53139;45.576;5.304;2022-07-29T08:39:21;13.00;11.75;9.25
66336;PMS1003;53139;45.576;5.304;2022-07-29T08:42:22;11.00;8.75;7.50
66336;PMS1003;53139;45.576;5.304;2022-07-29T08:45:23;11.50;11.00;9.25
66336;PMS1003;53139;45.576;5.304;2022-07-29T08:48:24;10.25;9.75;7.75
66336;PMS1003;53139;45.576;5.304;2022-07-29T08:51:25;11.00;11.00;9.00
66336;PMS1003;53139;45.576;5.304;2022-07-29T08:54:27;11.00;10.75;8.50
66336;PMS1003;53139;45.576;5.304;2022-07-29T08:57:29;12.00;10.00;7.25
66336;PMS1003;53139;45.576;5.304;2022-07-29T09:00:30;10.75;10.25;7.00
66336;PMS1003;53139;45.576;5.304;2022-07-29T09:03:32;12.50;10.00;8.25
66336;PMS1003;53139;45.576;5.304;2022-07-29T09:06:36;12.00;11.00;8.75
66336;PMS1003;53139;45.576;5.304;2022-07-29T09:09:38;8.75;8.75;6.00
66336;PMS1003;53139;45.576;5.304;2022-07-29T09:12:39;11.25;9.25;7.00
66336;PMS1003;53139;45.576;5.304;2022-07-29T09:15:40;9.50;9.25;7.00
66336;PMS1003;53139;45.576;5.304;2022-07-29T09:18:41;5.50;5.50;5.00
66336;PMS1003;53139;45.576;5.304;2022-07-29T09:21:43;9.00;8.00;6.00
66336;PMS1003;53139;45.576;5.304;2022-07-29T09:24:59;10.50;9.50;7.25
66336;PMS1003;53139;45.576;5.304;2022-07-29T09:28:12;13.75;9.25;7.50
66336;PMS1003;53139;45.576;5.304;2022-07-29T09:31:14;9.50;7.25;6.00
66336;PMS1003;53139;45.576;5.304;2022-07-29T09:34:15;9.00;8.50;7.50
66336;PMS1003;53139;45.576;5.304;2022-07-29T09:37:27;8.00;6.75;5.50
66336;PMS1003;53139;45.576;5.304;2022-07-29T09:40:28;14.75;13.00;10.50
66336;PMS1003;53139;45.576;5.304;2022-07-29T09:43:29;12.00;12.00;8.50
66336;PMS1003;53139;45.576;5.304;2022-07-29T09:46:29;10.25;8.50;6.25
66336;PMS1003;53139;45.576;5.304;2022-07-29T09:49:29;8.50;8.50;7.50
66336;PMS1003;53139;45.576;5.304;2022-07-29T09:52:30;13.00;11.50;10.00
66336;PMS1003;53139;45.576;5.304;2022-07-29T09:55:30;10.25;9.75;7.00
66336;PMS1003;53139;45.576;5.304;2022-07-29T09:58:31;12.00;11.00;9.00
66336;PMS1003;53139;45.576;5.304;2022-07-29T10:01:33;10.25;9.25;7.25
66336;PMS1003;53139;45.576;5.304;2022-07-29T10:04:36;13.00;11.00;9.00
66336;PMS1003;53139;45.576;5.304;2022-07-29T10:07:44;12.00;11.00;9.25
66336;PMS1003;53139;45.576;5.304;2022-07-29T10:11:02;18.00;13.25;9.50
66336;PMS1003;53139;45.576;5.304;2022-07-29T10:14:09;19.75;17.00;12.75
66336;PMS1003;53139;45.576;5.304;2022-07-29T10:17:10;16.50;14.00;10.25
66336;PMS1003;53139;45.576;5.304;2022-07-29T10:20:10;14.25;14.00;10.50
66336;PMS1003;53139;45.576;5.304;2022-07-29T10:23:11;14.75;14.25;10.75
66336;PMS1003;53139;45.576;5.304;2022-07-29T10:26:12;15.50;14.50;10.50
66336;PMS1003;53139;45.576;5.304;2022-07-29T10:29:13;13.00;13.00;10.25
66336;PMS1003;53139;45.576;5.304;2022-07-29T10:32:19;11.00;10.25;8.50
66336;PMS1003;53139;45.576;5.304;2022-07-29T10:42:28;12.75;11.00;8.25
66336;PMS1003;53139;45.576;5.304;2022-07-29T10:45:29;8.75;8.75;6.00
66336;PMS1003;53139;45.576;5.304;2022-07-29T10:48:30;10.50;10.25;8.25
66336;PMS1003;53139;45.576;5.304;2022-07-29T10:54:50;11.50;10.00;8.25
66336;PMS1003;53139;45.576;5.304;2022-07-29T10:58:11;12.50;11.75;8.75
66336;PMS1003;53139;45.576;5.304;2022-07-29T11:01:28;8.75;8.50;7.75
66336;PMS1003;53139;45.576;5.304;2022-07-29T11:20:58;9.50;9.50;7.25
66336;PMS1003;53139;45.576;5.304;2022-07-29T11:24:15;9.50;9.50;7.00
66336;PMS1003;53139;45.576;5.304;2022-07-29T11:27:18;10.25;9.50;7.00
66336;PMS1003;53139;45.576;5.304;2022-07-29T11:30:22;14.00;11.75;10.25
66336;PMS1003;53139;45.576;5.304;2022-07-29T11:33:49;9.25;8.50;6.75
66336;PMS1003;53139;45.576;5.304;2022-07-29T11:40:10;8.75;8.75;6.25
66336;PMS1003;53139;45.576;5.304;2022-07-29T11:43:12;11.00;11.00;8.00
66336;PMS1003;53139;45.576;5.304;2022-07-29T11:46:49;8.00;7.00;5.25
66336;PMS1003;53139;45.576;5.304;2022-07-29T11:49:51;7.50;7.50;6.00
66336;PMS1003;53139;45.576;5.304;2022-07-29T11:52:52;9.75;9.75;6.25
66336;PMS1003;53139;45.576;5.304;2022-07-29T11:55:54;8.00;6.50;5.00
66336;PMS1003;53139;45.576;5.304;2022-07-29T11:59:03;9.00;9.00;7.25
66336;PMS1003;53139;45.576;5.304;2022-07-29T12:02:04;7.00;7.00;6.00
66336;PMS1003;53139;45.576;5.304;2022-07-29T12:05:05;8.50;7.00;6.00
66336;PMS1003;53139;45.576;5.304;2022-07-29T12:08:06;8.00;8.00;6.00
66336;PMS1003;53139;45.576;5.304;2022-07-29T12:11:14;10.00;8.25;6.25
66336;PMS1003;53139;45.576;5.304;2022-07-29T12:17:31;6.25;6.25;6.00
66336;PMS1003;53139;45.576;5.304;2022-07-29T12:20:33;7.75;7.00;6.00
66336;PMS1003;53139;45.576;5.304;2022-07-29T12:23:34;9.25;6.25;5.75
66336;PMS1003;53139;45.576;5.304;2022-07-29T12:26:34;7.00;7.00;6.00
66336;PMS1003;53139;45.576;5.304;2022-07-29T12:29:34;8.00;7.00;6.00
66336;PMS1003;53139;45.576;5.304;2022-07-29T12:32:36;7.50;5.25;5.25
66336;PMS1003;53139;45.576;5.304;2022-07-29T12:35:38;6.25;6.25;5.25
66336;PMS1003;53139;45.576;5.304;2022-07-29T12:38:39;5.50;5.50;5.00
66336;PMS1003;53139;45.576;5.304;2022-07-29T12:41:40;7.00;5.25;4.00
66336;PMS1003;53139;45.576;5.304;2022-07-29T12:44:47;7.50;6.00;5.25
66336;PMS1003;53139;45.576;5.304;2022-07-29T12:47:51;5.75;5.25;4.25
66336;PMS1003;53139;45.576;5.304;2022-07-29T12:50:53;5.00;5.00;4.00
66336;PMS1003;53139;45.576;5.304;2022-07-29T12:54:08;6.00;5.00;5.00
66336;PMS1003;53139;45.576;5.304;2022-07-29T12:57:10;6.00;5.00;4.00
66336;PMS1003;53139;45.576;5.304;2022-07-29T13:00:11;5.00;5.00;4.00
66336;PMS1003;53139;45.576;5.304;2022-07-29T13:03:12;4.00;4.00;4.00
66336;PMS1003;53139;45.576;5.304;2022-07-29T13:09:44;6.00;5.75;5.00
66336;PMS1003;53139;45.576;5.304;2022-07-29T13:13:01;4.00;4.00;4.00
66336;PMS1003;53139;45.576;5.304;2022-07-29T13:16:05;6.00;4.75;4.25
66336;PMS1003;53139;45.576;5.304;2022-07-29T13:19:09;5.50;5.25;4.75
66336;PMS1003;53139;45.576;5.304;2022-07-29T13:22:14;6.00;4.00;4.00
66336;PMS1003;53139;45.576;5.304;2022-07-29T13:25:26;4.00;4.00;3.00
66336;PMS1003;53139;45.576;5.304;2022-07-29T13:28:28;2.25;2.25;1.75
66336;PMS1003;53139;45.576;5.304;2022-07-29T13:31:28;5.75;4.75;4.00
66336;PMS1003;53139;45.576;5.304;2022-07-29T13:34:29;4.00;4.00;3.00
66336;PMS1003;53139;45.576;5.304;2022-07-29T13:37:30;4.25;4.25;3.25
66336;PMS1003;53139;45.576;5.304;2022-07-29T13:40:32;6.00;6.00;5.00
66336;PMS1003;53139;45.576;5.304;2022-07-29T13:43:35;7.00;7.00;6.00
66336;PMS1003;53139;45.576;5.304;2022-07-29T13:46:35;6.00;5.50;4.75
66336;PMS1003;53139;45.576;5.304;2022-07-29T13:49:35;5.50;5.50;4.75
66336;PMS1003;53139;45.576;5.304;2022-07-29T13:52:36;5.00;5.00;4.00
66336;PMS1003;53139;45.576;5.304;2022-07-29T13:55:38;6.00;5.25;4.25
66336;PMS1003;53139;45.576;5.304;2022-07-29T13:58:38;5.50;5.50;4.50
66336;PMS1003;53139;45.576;5.304;2022-07-29T14:01:39;6.50;4.25;4.00
66336;PMS1003;53139;45.576;5.304;2022-07-29T14:04:41;6.75;5.75;5.00
66336;PMS1003;53139;45.576;5.304;2022-07-29T14:07:42;5.00;5.00;4.75
66336;PMS1003;53139;45.576;5.304;2022-07-29T14:10:42;7.25;5.00;4.50
66336;PMS1003;53139;45.576;5.304;2022-07-29T14:13:43;5.00;5.00;4.25
66336;PMS1003;53139;45.576;5.304;2022-07-29T14:16:43;6.50;6.00;4.25
66336;PMS1003;53139;45.576;5.304;2022-07-29T14:19:44;4.25;4.25;4.00
66336;PMS1003;53139;45.576;5.304;2022-07-29T14:22:44;7.50;6.00;5.00
66336;PMS1003;53139;45.576;5.304;2022-07-29T14:25:44;5.00;5.00;4.00
66336;PMS1003;53139;45.576;5.304;2022-07-29T14:28:45;7.25;5.25;4.75
66336;PMS1003;53139;45.576;5.304;2022-07-29T14:31:45;5.00;5.00;4.25
66336;PMS1003;53139;45.576;5.304;2022-07-29T14:34:45;6.00;6.00;5.00
66336;PMS1003;53139;45.576;5.304;2022-07-29T14:37:46;6.00;6.00;5.00
66336;PMS1003;53139;45.576;5.304;2022-07-29T14:40:46;5.00;5.00;4.25
66336;PMS1003;53139;45.576;5.304;2022-07-29T14:43:46;6.25;6.00;5.25
66336;PMS1003;53139;45.576;5.304;2022-07-29T14:46:47;7.25;5.75;5.00
66336;PMS1003;53139;45.576;5.304;2022-07-29T14:49:47;6.00;6.00;4.75
66336;PMS1003;53139;45.576;5.304;2022-07-29T14:52:48;6.00;6.00;5.50
66336;PMS1003;53139;45.576;5.304;2022-07-29T14:55:48;6.25;5.75;5.00
66336;PMS1003;53139;45.576;5.304;2022-07-29T14:58:49;5.50;5.50;4.50
66336;PMS1003;53139;45.576;5.304;2022-07-29T15:01:49;6.75;6.75;5.50
66336;PMS1003;53139;45.576;5.304;2022-07-29T15:04:50;6.75;5.00;4.75
66336;PMS1003;53139;45.576;5.304;2022-07-29T15:07:50;5.50;5.00;4.00
66336;PMS1003;53139;45.576;5.304;2022-07-29T15:10:51;5.25;5.25;4.75
66336;PMS1003;53139;45.576;5.304;2022-07-29T15:13:51;4.75;4.50;4.00
66336;PMS1003;53139;45.576;5.304;2022-07-29T15:16:51;5.25;5.25;4.50
66336;PMS1003;53139;45.576;5.304;2022-07-29T15:19:52;6.00;6.00;5.00
66336;PMS1003;53139;45.576;5.304;2022-07-29T15:22:52;5.00;5.00;4.50
66336;PMS1003;53139;45.576;5.304;2022-07-29T15:25:55;6.00;6.00;5.00
66336;PMS1003;53139;45.576;5.304;2022-07-29T15:28:55;4.75;4.75;4.75
66336;PMS1003;53139;45.576;5.304;2022-07-29T15:31:56;5.00;5.00;5.00
66336;PMS1003;53139;45.576;5.304;2022-07-29T15:34:56;4.75;4.75;4.25
66336;PMS1003;53139;45.576;5.304;2022-07-29T15:37:56;5.75;5.75;4.75
66336;PMS1003;53139;45.576;5.304;2022-07-29T15:40:57;5.50;4.50;3.50
66336;PMS1003;53139;45.576;5.304;2022-07-29T15:43:57;5.25;5.00;4.25
66336;PMS1003;53139;45.576;5.304;2022-07-29T15:46:57;4.25;3.75;3.50
66336;PMS1003;53139;45.576;5.304;2022-07-29T15:50:07;6.50;6.50;6.00
66336;PMS1003;53139;45.576;5.304;2022-07-29T15:53:13;5.00;5.00;4.75
66336;PMS1003;53139;45.576;5.304;2022-07-29T15:56:13;5.75;4.00;4.00
66336;PMS1003;53139;45.576;5.304;2022-07-29T15:59:14;5.00;5.00;4.50
66336;PMS1003;53139;45.576;5.304;2022-07-29T16:02:14;5.75;5.75;4.75
66336;PMS1003;53139;45.576;5.304;2022-07-29T16:05:14;4.75;4.75;4.00
66336;PMS1003;53139;45.576;5.304;2022-07-29T16:08:15;5.00;5.00;4.00
66336;PMS1003;53139;45.576;5.304;2022-07-29T16:11:15;6.75;5.25;4.75
66336;PMS1003;53139;45.576;5.304;2022-07-29T16:14:16;4.50;4.50;4.00
66336;PMS1003;53139;45.576;5.304;2022-07-29T16:17:17;5.00;4.75;4.00
66336;PMS1003;53139;45.576;5.304;2022-07-29T16:20:17;4.00;4.00;4.00
66336;PMS1003;53139;45.576;5.304;2022-07-29T16:23:19;4.00;4.00;4.00
66336;PMS1003;53139;45.576;5.304;2022-07-29T16:26:20;5.25;5.25;5.00
66336;PMS1003;53139;45.576;5.304;2022-07-29T16:29:20;5.00;4.00;3.75
66336;PMS1003;53139;45.576;5.304;2022-07-29T16:32:20;3.00;2.75;2.00
66336;PMS1003;53139;45.576;5.304;2022-07-29T16:35:21;4.50;4.50;4.25
66336;PMS1003;53139;45.576;5.304;2022-07-29T16:38:21;3.50;3.50;3.00
66336;PMS1003;53139;45.576;5.304;2022-07-29T16:41:22;6.50;3.75;3.00
66336;PMS1003;53139;45.576;5.304;2022-07-29T16:44:22;5.50;5.00;3.50
66336;PMS1003;53139;45.576;5.304;2022-07-29T16:47:22;4.00;3.25;3.00
66336;PMS1003;53139;45.576;5.304;2022-07-29T16:50:23;3.00;3.00;3.00
66336;PMS1003;53139;45.576;5.304;2022-07-29T16:53:24;3.25;3.25;3.00
66336;PMS1003;53139;45.576;5.304;2022-07-29T16:56:24;3.00;3.00;2.25
66336;PMS1003;53139;45.576;5.304;2022-07-29T16:59:25;4.75;2.75;2.75
66336;PMS1003;53139;45.576;5.304;2022-07-29T17:02:26;4.00;4.00;3.00
66336;PMS1003;53139;45.576;5.304;2022-07-29T17:05:26;4.00;4.00;3.00
66336;PMS1003;53139;45.576;5.304;2022-07-29T17:08:27;5.00;4.00;4.00
66336;PMS1003;53139;45.576;5.304;2022-07-29T17:11:27;3.50;3.25;3.25
66336;PMS1003;53139;45.576;5.304;2022-07-29T17:14:28;2.75;2.75;2.50
66336;PMS1003;53139;45.576;5.304;2022-07-29T17:17:30;3.00;3.00;2.00
66336;PMS1003;53139;45.576;5.304;2022-07-29T17:20:31;3.50;3.50;3.00
66336;PMS1003;53139;45.576;5.304;2022-07-29T17:23:32;3.75;3.25;3.25
66336;PMS1003;53139;45.576;5.304;2022-07-29T17:26:32;3.50;3.50;3.00
66336;PMS1003;53139;45.576;5.304;2022-07-29T17:29:32;3.25;3.25;2.00
66336;PMS1003;53139;45.576;5.304;2022-07-29T17:32:34;4.00;3.00;3.00
66336;PMS1003;53139;45.576;5.304;2022-07-29T17:35:37;2.75;2.75;2.25
66336;PMS1003;53139;45.576;5.304;2022-07-29T17:38:57;3.75;3.75;3.00
66336;PMS1003;53139;45.576;5.304;2022-07-29T17:42:02;2.00;2.00;2.00
66336;PMS1003;53139;45.576;5.304;2022-07-29T17:45:02;4.00;2.75;2.00
66336;PMS1003;53139;45.576;5.304;2022-07-29T17:48:03;3.00;3.00;2.25
66336;PMS1003;53139;45.576;5.304;2022-07-29T17:51:04;3.00;3.00;3.00
66336;PMS1003;53139;45.576;5.304;2022-07-29T17:54:04;1.75;1.75;1.50
66336;PMS1003;53139;45.576;5.304;2022-07-29T17:57:05;2.50;2.50;2.00
66336;PMS1003;53139;45.576;5.304;2022-07-29T18:00:05;3.00;3.00;2.25
66336;PMS1003;53139;45.576;5.304;2022-07-29T18:03:06;4.25;3.00;3.00
66336;PMS1003;53139;45.576;5.304;2022-07-29T18:06:07;3.75;3.00;2.00
66336;PMS1003;53139;45.576;5.304;2022-07-29T18:09:09;2.75;2.75;2.50
66336;PMS1003;53139;45.576;5.304;2022-07-29T18:12:09;2.00;2.00;2.00
66336;PMS1003;53139;45.576;5.304;2022-07-29T18:15:10;2.75;2.75;2.25
66336;PMS1003;53139;45.576;5.304;2022-07-29T18:18:13;3.50;3.00;2.00
66336;PMS1003;53139;45.576;5.304;2022-07-29T18:21:15;3.25;3.25;3.00
66336;PMS1003;53139;45.576;5.304;2022-07-29T18:24:15;3.00;2.50;2.25
66336;PMS1003;53139;45.576;5.304;2022-07-29T18:27:16;2.50;2.50;2.00
66336;PMS1003;53139;45.576;5.304;2022-07-29T18:30:16;5.00;5.00;4.25
66336;PMS1003;53139;45.576;5.304;2022-07-29T18:33:17;4.50;4.00;3.00
66336;PMS1003;53139;45.576;5.304;2022-07-29T18:36:18;4.00;2.50;2.00
66336;PMS1003;53139;45.576;5.304;2022-07-29T18:39:19;5.25;3.00;3.00
66336;PMS1003;53139;45.576;5.304;2022-07-29T18:42:19;5.25;3.75;3.50
66336;PMS1003;53139;45.576;5.304;2022-07-29T18:45:20;4.00;3.25;3.00
66336;PMS1003;53139;45.576;5.304;2022-07-29T18:48:20;4.00;4.00;2.75
66336;PMS1003;53139;45.576;5.304;2022-07-29T18:51:21;5.00;4.00;3.00
66336;PMS1003;53139;45.576;5.304;2022-07-29T18:54:21;2.50;2.50;2.00
66336;PMS1003;53139;45.576;5.304;2022-07-29T18:57:22;5.50;3.75;3.25
66336;PMS1003;53139;45.576;5.304;2022-07-29T19:00:23;3.00;3.00;3.00
66336;PMS1003;53139;45.576;5.304;2022-07-29T19:03:24;2.00;2.00;2.00
66336;PMS1003;53139;45.576;5.304;2022-07-29T19:06:24;4.75;3.00;3.00
66336;PMS1003;53139;45.576;5.304;2022-07-29T19:09:25;5.00;5.00;4.00
66336;PMS1003;53139;45.576;5.304;2022-07-29T19:12:26;7.50;6.00;5.00
66336;PMS1003;53139;45.576;5.304;2022-07-29T19:15:26;6.25;5.25;4.25
66336;PMS1003;53139;45.576;5.304;2022-07-29T19:18:26;4.00;4.00;3.25
66336;PMS1003;53139;45.576;5.304;2022-07-29T19:21:27;4.00;2.75;2.25
66336;PMS1003;53139;45.576;5.304;2022-07-29T19:24:27;3.75;3.50;3.00
66336;PMS1003;53139;45.576;5.304;2022-07-29T19:27:28;3.50;3.50;3.00
66336;PMS1003;53139;45.576;5.304;2022-07-29T19:30:28;3.00;3.00;2.00
66336;PMS1003;53139;45.576;5.304;2022-07-29T19:33:29;4.50;3.75;3.00
66336;PMS1003;53139;45.576;5.304;2022-07-29T19:36:29;5.00;5.00;4.00
66336;PMS1003;53139;45.576;5.304;2022-07-29T19:39:30;6.00;4.00;4.00
66336;PMS1003;53139;45.576;5.304;2022-07-29T19:42:30;3.00;3.00;3.00
66336;PMS1003;53139;45.576;5.304;2022-07-29T19:45:31;4.00;4.00;3.25
66336;PMS1003;53139;45.576;5.304;2022-07-29T19:48:32;5.25;4.75;3.50
66336;PMS1003;53139;45.576;5.304;2022-07-29T19:51:32;7.00;4.00;3.25
66336;PMS1003;53139;45.576;5.304;2022-07-29T19:54:33;4.00;4.00;3.00
66336;PMS1003;53139;45.576;5.304;2022-07-29T19:57:33;3.00;3.00;3.00
66336;PMS1003;53139;45.576;5.304;2022-07-29T20:00:34;5.00;5.00;4.50
66336;PMS1003;53139;45.576;5.304;2022-07-29T20:03:34;5.00;5.00;4.00
66336;PMS1003;53139;45.576;5.304;2022-07-29T20:06:34;6.00;5.50;5.00
66336;PMS1003;53139;45.576;5.304;2022-07-29T20:09:35;7.50;5.00;5.00
66336;PMS1003;53139;45.576;5.304;2022-07-29T20:12:35;6.00;6.00;4.50
66336;PMS1003;53139;45.576;5.304;2022-07-29T20:15:36;5.00;5.00;4.25
66336;PMS1003;53139;45.576;5.304;2022-07-29T20:18:37;6.00;6.00;6.00
66336;PMS1003;53139;45.576;5.304;2022-07-29T20:21:37;6.00;6.00;5.00
66336;PMS1003;53139;45.576;5.304;2022-07-29T20:24:38;7.00;6.00;4.50
66336;PMS1003;53139;45.576;5.304;2022-07-29T20:27:38;7.75;7.50;6.25
66336;PMS1003;53139;45.576;5.304;2022-07-29T20:30:39;4.50;4.25;4.25
66336;PMS1003;53139;45.576;5.304;2022-07-29T20:33:40;5.50;4.25;4.00
66336;PMS1003;53139;45.576;5.304;2022-07-29T20:36:41;7.00;7.00;6.00
66336;PMS1003;53139;45.576;5.304;2022-07-29T20:39:42;6.00;6.00;5.00
66336;PMS1003;53139;45.576;5.304;2022-07-29T20:42:42;5.25;5.00;4.00
66336;PMS1003;53139;45.576;5.304;2022-07-29T20:45:43;6.00;5.50;5.00
66336;PMS1003;53139;45.576;5.304;2022-07-29T20:48:43;8.75;5.25;3.50
66336;PMS1003;53139;45.576;5.304;2022-07-29T20:51:45;5.00;5.00;4.00
66336;PMS1003;53139;45.576;5.304;2022-07-29T20:54:46;5.00;5.00;4.25
66336;PMS1003;53139;45.576;5.304;2022-07-29T20:57:46;6.00;5.00;5.00
66336;PMS1003;53139;45.576;5.304;2022-07-29T21:00:47;6.00;6.00;4.00
66336;PMS1003;53139;45.576;5.304;2022-07-29T21:03:47;5.00;5.00;4.00
66336;PMS1003;53139;45.576;5.304;2022-07-29T21:06:47;6.00;6.00;5.00
66336;PMS1003;53139;45.576;5.304;2022-07-29T21:09:48;6.00;6.00;5.00
66336;PMS1003;53139;45.576;5.304;2022-07-29T21:12:48;5.75;5.50;4.25
66336;PMS1003;53139;45.576;5.304;2022-07-29T21:15:49;5.00;5.00;4.00
66336;PMS1003;53139;45.576;5.304;2022-07-29T21:18:50;2.00;2.00;1.75
66336;PMS1003;53139;45.576;5.304;2022-07-29T21:21:52;5.25;5.25;5.00
66336;PMS1003;53139;45.576;5.304;2022-07-29T21:24:52;4.50;4.50;3.75
66336;PMS1003;53139;45.576;5.304;2022-07-29T21:27:52;5.50;5.50;5.00
66336;PMS1003;53139;45.576;5.304;2022-07-29T21:31:12;5.00;4.00;4.00
66336;PMS1003;53139;45.576;5.304;2022-07-29T21:34:13;8.00;7.00;5.75
66336;PMS1003;53139;45.576;5.304;2022-07-29T21:37:14;6.50;6.50;4.75
66336;PMS1003;53139;45.576;5.304;2022-07-29T21:40:15;8.25;6.75;5.00
66336;PMS1003;53139;45.576;5.304;2022-07-29T21:43:15;8.00;6.75;5.00
66336;PMS1003;53139;45.576;5.304;2022-07-29T21:46:16;6.00;6.00;5.00
66336;PMS1003;53139;45.576;5.304;2022-07-29T21:49:16;6.50;6.50;5.00
66336;PMS1003;53139;45.576;5.304;2022-07-29T21:52:17;9.25;7.25;6.25
66336;PMS1003;53139;45.576;5.304;2022-07-29T21:55:17;7.00;7.00;5.00
66336;PMS1003;53139;45.576;5.304;2022-07-29T21:58:18;7.00;7.00;6.00
66336;PMS1003;53139;45.576;5.304;2022-07-29T22:01:20;9.25;6.00;5.25
66336;PMS1003;53139;45.576;5.304;2022-07-29T22:04:21;8.25;6.75;6.25
66336;PMS1003;53139;45.576;5.304;2022-07-29T22:07:21;6.00;5.50;5.00
66336;PMS1003;53139;45.576;5.304;2022-07-29T22:10:22;8.75;6.50;5.25
66336;PMS1003;53139;45.576;5.304;2022-07-29T22:13:23;7.67;7.67;6.00
66336;PMS1003;53139;45.576;5.304;2022-07-29T22:16:23;6.75;6.50;6.00
66336;PMS1003;53139;45.576;5.304;2022-07-29T22:19:24;7.00;7.00;6.00
66336;PMS1003;53139;45.576;5.304;2022-07-29T22:22:25;6.25;6.25;6.00
66336;PMS1003;53139;45.576;5.304;2022-07-29T22:25:26;9.25;8.75;6.00
66336;PMS1003;53139;45.576;5.304;2022-07-29T22:28:26;8.75;8.00;6.25
66336;PMS1003;53139;45.576;5.304;2022-07-29T22:31:26;6.00;5.75;5.00
66336;PMS1003;53139;45.576;5.304;2022-07-29T22:34:27;6.50;6.50;4.50
66336;PMS1003;53139;45.576;5.304;2022-07-29T22:37:27;9.50;9.25;7.25
66336;PMS1003;53139;45.576;5.304;2022-07-29T22:40:28;4.50;4.50;4.25
66336;PMS1003;53139;45.576;5.304;2022-07-29T22:43:28;7.00;5.75;4.50
66336;PMS1003;53139;45.576;5.304;2022-07-29T22:46:28;8.50;8.25;6.00
66336;PMS1003;53139;45.576;5.304;2022-07-29T22:49:29;10.25;9.00;5.75
66336;PMS1003;53139;45.576;5.304;2022-07-29T22:52:30;6.75;6.25;5.75
66336;PMS1003;53139;45.576;5.304;2022-07-29T22:55:30;8.75;7.50;5.00
66336;PMS1003;53139;45.576;5.304;2022-07-29T22:58:31;10.00;8.00;5.25
66336;PMS1003;53139;45.576;5.304;2022-07-29T23:01:31;7.00;7.00;5.75
66336;PMS1003;53139;45.576;5.304;2022-07-29T23:04:31;8.50;8.50;6.00